首页
METAR-TAF:

METAR-TAF

机场 :

马塔维里国际机场

復活節島, 智利

纬度: 27-09S, 经度: 109-25W, 海拔: 51米

当前天气观测

该预报发布于43分钟前的18:00 UTC
风速10节,风向西转西北,在西转西南西北之间变化
温度 20°C
湿度 60%
气压 1015 hPa
能见度10公里或以上
散云层高于2500英尺

METAR: SCIP 101800Z 30010KT 250V320 9999 SCT025 20/12 Q1015 NOSIG

时间: 12:43 (18:43 UTC)

预报

该预报发布于2小时和43分钟前的16:00 UTC
预报有效从10日的 18点(UTC)到 11日的 18点(UTC)
风速10节,风向西转西北
能见度10公里或以上
散云层高于2000英尺
多云层高于4000英尺
短暂存在
从 10日的 20点(UTC)到 11日的 03点(UTC)
风速15节,风向北转西北
能見度: 4000
散云层高于1000英尺
多云层高于3000英尺
大阵雨
成为
从 11日的 04点(UTC)到 11日的 06点(UTC)
风速15节,风向北转西北
短暂存在
从 11日的 16点(UTC)到 11日的 18点(UTC)
风速10节,风向北转西北,有时为25节阵风
能見度: 4000
散云层高于500英尺
多云层高于1000英尺
阴天层高于3000英尺
大阵雨

TAF: SCIP 101600Z 1018/1118 29010KT 9999 SCT020 BKN040 TN16/1107Z TX20/1019Z TEMPO 1020/1103 33015KT 4000 +SHRA SCT010 BKN030 BECMG 1104/1106 34015KT TEMPO 1116/1118 33010G25KT 4000 +SHRA SCT005 BKN010 OVC030

超过4000个机场的气象观测和天气预报(METAR&TAF报告)。

可查询的气象台以黄色和红色小点在地图上表示。

将鼠标移到小点上方,可查看气象台名称。

然后点击查看天气观测和预报。

如需切换地图:点击带黑十字的绿色按钮放大地图;点击带横线的绿色按钮缩小地图;或者点击绿色箭头查看邻近地区的地图。


METAR-TAF: